The Pas Airport

CYQD | YQD

The Pas , Manitoba , Canada

Sunday, January 26th, 2020 | 17:31

Weather

CYQD 262300Z AUTO 00000KT 9SM OVC007 M07/M09 A3013 RMK SLP225

Charts

No Charts Available

Gates

No Gates Available

Runways

1 Available

Events

No events for this airport


New event